createdAt,value
2022-12-23T00:01:28.393Z,8.60
2022-12-23T00:03:59.241Z,10.23
2022-12-23T00:06:27.838Z,7.13
2022-12-23T00:08:59.503Z,10.00
2022-12-23T00:11:30.755Z,8.32
2022-12-23T00:14:21.420Z,11.93
2022-12-23T00:16:53.415Z,9.43
2022-12-23T00:19:21.752Z,10.80
2022-12-23T00:21:50.180Z,9.18
2022-12-23T00:24:19.892Z,11.27
2022-12-23T00:26:48.246Z,10.35
2022-12-23T00:29:18.537Z,10.20
2022-12-23T00:31:46.892Z,9.38
2022-12-23T00:34:18.108Z,12.95
2022-12-23T00:36:46.469Z,11.23
2022-12-23T00:39:32.484Z,12.20
2022-12-23T00:42:19.558Z,11.88
2022-12-23T00:44:47.931Z,10.60
2022-12-23T00:47:30.032Z,11.13
2022-12-23T00:49:58.340Z,12.02
2022-12-23T00:52:27.415Z,11.60
2022-12-23T00:54:55.761Z,12.68
2022-12-23T00:57:25.562Z,12.25
2022-12-23T00:59:53.833Z,13.50
2022-12-23T01:02:39.802Z,12.23
2022-12-23T01:05:36.498Z,12.75
2022-12-23T01:08:04.937Z,12.80
2022-12-23T01:10:33.280Z,14.55
2022-12-23T01:13:02.962Z,13.43
2022-12-23T01:15:31.779Z,14.38
2022-12-23T01:18:00.386Z,16.90
2022-12-23T01:20:28.695Z,15.07
2022-12-23T01:22:57.080Z,14.52
2022-12-23T01:25:25.481Z,12.32
2022-12-23T01:27:53.814Z,14.68
2022-12-23T01:30:23.638Z,13.98
2022-12-23T01:32:52.060Z,13.52
2022-12-23T01:35:22.068Z,11.65
2022-12-23T01:37:50.427Z,13.45
2022-12-23T01:40:18.786Z,12.48
2022-12-23T01:42:47.459Z,13.00
2022-12-23T01:45:18.554Z,11.70
2022-12-23T01:47:51.852Z,12.50
2022-12-23T01:50:26.697Z,17.88
2022-12-23T01:53:06.442Z,14.38
2022-12-23T01:55:41.381Z,15.65
2022-12-23T01:58:13.158Z,14.93
2022-12-23T02:01:04.686Z,13.15
2022-12-23T02:03:43.932Z,14.77
2022-12-23T02:06:33.717Z,12.52
2022-12-23T02:09:20.367Z,12.52
2022-12-23T02:12:21.625Z,13.75
2022-12-23T02:15:20.916Z,14.38
2022-12-23T02:17:57.693Z,13.32
2022-12-23T02:21:07.860Z,14.45
2022-12-23T02:24:01.601Z,13.77
2022-12-23T02:26:52.016Z,16.25
2022-12-23T02:29:37.679Z,14.60
2022-12-23T02:32:12.313Z,15.50
2022-12-23T02:34:44.459Z,14.73
2022-12-23T02:37:19.617Z,17.38
2022-12-23T02:39:53.221Z,16.02
2022-12-23T02:42:24.189Z,14.30
2022-12-23T02:44:57.596Z,15.98
2022-12-23T02:47:31.165Z,17.67
2022-12-23T02:50:02.215Z,18.80
2022-12-23T02:52:34.018Z,15.93
2022-12-23T02:55:08.208Z,15.10
2022-12-23T02:57:38.895Z,17.02
2022-12-23T03:00:08.886Z,18.13
2022-12-23T03:02:41.171Z,15.95
2022-12-23T03:05:26.003Z,18.92
2022-12-23T03:07:55.267Z,20.85
2022-12-23T03:10:30.454Z,16.55
2022-12-23T03:13:06.202Z,16.48
2022-12-23T03:15:39.946Z,17.73
2022-12-23T03:18:15.580Z,18.93
2022-12-23T03:20:48.993Z,17.15
2022-12-23T03:23:21.606Z,18.60
2022-12-23T03:25:56.572Z,20.48
2022-12-23T03:28:33.891Z,21.10
2022-12-23T03:31:04.081Z,16.00
2022-12-23T03:33:36.542Z,17.65
2022-12-23T03:36:09.099Z,18.73
2022-12-23T03:38:40.839Z,19.13
2022-12-23T03:41:14.022Z,17.75
2022-12-23T03:43:50.344Z,21.45
2022-12-23T03:46:23.220Z,19.67
2022-12-23T03:48:57.890Z,18.52
2022-12-23T03:51:29.335Z,21.15
2022-12-23T03:53:59.138Z,16.73
2022-12-23T03:56:31.340Z,20.20
2022-12-23T03:59:04.854Z,17.95
2022-12-23T04:01:38.731Z,17.70
2022-12-23T04:04:12.376Z,19.27
2022-12-23T04:06:46.986Z,17.50
2022-12-23T04:09:21.745Z,18.63
2022-12-23T04:11:51.002Z,18.00
2022-12-23T04:14:19.661Z,19.50
2022-12-23T04:16:48.796Z,18.58
2022-12-23T04:19:18.720Z,19.02
2022-12-23T04:21:47.131Z,21.17
2022-12-23T04:24:15.497Z,18.65
2022-12-23T04:26:43.827Z,19.77
2022-12-23T04:29:12.240Z,19.95
2022-12-23T04:31:40.630Z,18.92
2022-12-23T04:34:10.982Z,17.40
2022-12-23T04:36:40.782Z,20.92
2022-12-23T04:39:10.261Z,19.83
2022-12-23T04:41:38.741Z,21.10
2022-12-23T04:44:09.989Z,19.70
2022-12-23T04:46:38.534Z,24.63
2022-12-23T04:49:07.060Z,25.35
2022-12-23T04:51:36.147Z,20.98
2022-12-23T04:54:06.136Z,19.35
2022-12-23T04:56:34.415Z,21.80
2022-12-23T04:59:04.410Z,22.02
2022-12-23T05:01:32.984Z,21.70
2022-12-23T05:04:01.413Z,20.23
2022-12-23T05:06:29.893Z,22.63
2022-12-23T05:08:58.290Z,22.52
2022-12-23T05:11:28.106Z,19.92
2022-12-23T05:13:56.502Z,26.90
2022-12-23T05:16:25.018Z,21.33
2022-12-23T05:18:53.528Z,24.40
2022-12-23T05:21:21.902Z,22.08
2022-12-23T05:23:52.175Z,25.20
2022-12-23T05:26:20.838Z,20.70
2022-12-23T05:28:50.626Z,20.80
2022-12-23T05:31:20.264Z,29.63
2022-12-23T05:33:48.696Z,18.90
2022-12-23T05:36:17.069Z,18.65
2022-12-23T05:38:45.460Z,17.00
2022-12-23T05:41:14.225Z,17.80
2022-12-23T05:43:42.586Z,20.05
2022-12-23T05:46:12.410Z,19.02
2022-12-23T05:48:40.903Z,14.90
2022-12-23T05:51:09.259Z,14.43
2022-12-23T05:53:44.638Z,18.38
2022-12-23T05:56:13.289Z,16.02
2022-12-23T05:58:44.059Z,17.33
2022-12-23T06:01:14.041Z,16.70
2022-12-23T06:03:42.484Z,21.95
2022-12-23T06:06:12.047Z,19.65
2022-12-23T06:08:40.378Z,18.75
2022-12-23T06:11:08.886Z,17.50
2022-12-23T06:13:39.163Z,21.20
2022-12-23T06:16:08.138Z,25.10
2022-12-23T06:18:37.893Z,22.05
2022-12-23T06:21:06.805Z,18.20
2022-12-23T06:23:38.478Z,23.10
2022-12-23T06:26:09.406Z,19.60
2022-12-23T06:28:41.327Z,19.85
2022-12-23T06:31:09.693Z,19.67
2022-12-23T06:33:41.956Z,17.17
2022-12-23T06:36:13.304Z,22.35
2022-12-23T06:38:43.791Z,21.88
2022-12-23T06:41:12.484Z,18.27
2022-12-23T06:43:40.993Z,18.67
2022-12-23T06:46:09.454Z,17.27
2022-12-23T06:48:37.834Z,17.88
2022-12-23T06:51:07.747Z,19.83
2022-12-23T06:53:36.308Z,19.02
2022-12-23T06:56:05.657Z,16.38
2022-12-23T06:58:34.040Z,16.08
2022-12-23T07:01:02.480Z,17.35
2022-12-23T07:03:30.901Z,16.88
2022-12-23T07:05:59.562Z,16.20
2022-12-23T07:08:29.250Z,16.80
2022-12-23T07:10:59.819Z,18.10
2022-12-23T07:13:28.665Z,17.17
2022-12-23T07:15:57.443Z,24.15
2022-12-23T07:18:27.667Z,18.75
2022-12-23T07:20:55.985Z,21.75
2022-12-23T07:23:24.594Z,20.00
2022-12-23T07:25:55.812Z,20.45
2022-12-23T07:28:24.207Z,26.60
2022-12-23T07:30:52.702Z,22.50
2022-12-23T07:33:21.062Z,23.95
2022-12-23T07:35:51.925Z,21.27
2022-12-23T07:38:20.265Z,22.50
2022-12-23T07:40:53.421Z,23.50
2022-12-23T07:43:23.135Z,25.25
2022-12-23T07:45:57.577Z,24.98
2022-12-23T07:48:28.097Z,26.88
2022-12-23T07:51:01.657Z,26.80
2022-12-23T07:53:29.997Z,25.45
2022-12-23T07:55:58.348Z,25.02
2022-12-23T07:58:28.171Z,22.33
2022-12-23T08:01:01.956Z,24.73
2022-12-23T08:03:32.832Z,21.67
2022-12-23T08:06:02.797Z,22.88
2022-12-23T08:08:31.423Z,23.50
2022-12-23T08:11:01.117Z,22.90
2022-12-23T08:13:32.323Z,22.63
2022-12-23T08:16:04.560Z,18.20
2022-12-23T08:18:34.856Z,23.48
2022-12-23T08:21:04.685Z,20.90
2022-12-23T08:23:33.510Z,20.35
2022-12-23T08:26:03.182Z,21.35
2022-12-23T08:28:34.190Z,21.42
2022-12-23T08:31:08.217Z,18.50
2022-12-23T08:33:40.332Z,18.27
2022-12-23T08:36:14.989Z,17.83
2022-12-23T08:38:46.073Z,20.20
2022-12-23T08:41:16.537Z,18.52
2022-12-23T08:43:46.502Z,18.83
2022-12-23T08:46:17.795Z,18.85
2022-12-23T08:48:49.401Z,17.83
2022-12-23T08:51:21.033Z,17.65
2022-12-23T08:53:53.544Z,16.13
2022-12-23T08:56:26.677Z,17.52
2022-12-23T08:58:56.946Z,15.57
2022-12-23T09:01:31.627Z,20.60
2022-12-23T09:06:30.565Z,17.92
2022-12-23T09:08:59.588Z,23.50
2022-12-23T09:11:30.104Z,20.80
2022-12-23T09:14:01.000Z,20.95
2022-12-23T09:16:29.749Z,23.90
2022-12-23T09:18:58.408Z,22.67
2022-12-23T09:21:27.429Z,18.98
2022-12-23T09:23:55.858Z,19.17
2022-12-23T09:26:25.743Z,19.38
2022-12-23T09:28:55.801Z,16.98
2022-12-23T09:31:32.257Z,20.42
2022-12-23T09:34:02.589Z,19.88
2022-12-23T09:36:31.123Z,18.20
2022-12-23T09:38:59.850Z,19.75
2022-12-23T09:41:36.772Z,17.85
2022-12-23T09:44:19.069Z,18.60
2022-12-23T09:46:53.867Z,19.77
2022-12-23T09:49:24.128Z,19.42
2022-12-23T09:51:55.923Z,18.30
2022-12-23T09:54:26.770Z,16.90
2022-12-23T09:56:59.086Z,20.88
2022-12-23T09:59:42.205Z,20.15
2022-12-23T10:02:23.922Z,19.55
2022-12-23T10:04:58.146Z,15.73
2022-12-23T10:07:32.923Z,19.42
2022-12-23T10:10:07.549Z,23.23
2022-12-23T10:12:40.299Z,18.00
2022-12-23T10:15:22.389Z,23.50
2022-12-23T10:17:58.534Z,18.60
2022-12-23T10:20:34.734Z,18.10
2022-12-23T10:23:03.221Z,18.17
2022-12-23T10:25:36.456Z,17.17
2022-12-23T10:28:07.161Z,20.17
2022-12-23T10:33:37.244Z,20.73
2022-12-23T10:36:10.125Z,18.90
2022-12-23T10:38:47.934Z,17.25
2022-12-23T10:41:24.224Z,21.55
2022-12-23T10:44:04.734Z,15.32
2022-12-23T10:46:39.352Z,17.55
2022-12-23T10:49:19.675Z,16.88
2022-12-23T10:51:51.253Z,20.40
2022-12-23T10:54:25.497Z,14.65
2022-12-23T10:56:54.930Z,16.92
2022-12-23T10:59:27.941Z,18.42
2022-12-23T11:02:00.709Z,18.00
2022-12-23T11:04:33.919Z,21.05
2022-12-23T11:07:34.311Z,17.83
2022-12-23T11:09:55.936Z,17.83
2022-12-23T11:12:25.644Z,16.90
2022-12-23T11:15:00.173Z,20.20
2022-12-23T11:17:30.381Z,20.55
2022-12-23T11:20:13.427Z,22.33
2022-12-23T11:22:49.428Z,24.92
2022-12-23T11:25:28.608Z,18.17
2022-12-23T11:28:02.167Z,22.15
2022-12-23T11:30:31.672Z,19.42
2022-12-23T11:33:00.415Z,19.60
2022-12-23T11:35:34.649Z,20.35
2022-12-23T11:38:07.339Z,19.73
2022-12-23T11:40:37.863Z,20.20
2022-12-23T11:43:17.903Z,22.25
2022-12-23T11:45:48.190Z,17.33
2022-12-23T11:48:30.427Z,16.75
2022-12-23T11:51:04.850Z,17.42
2022-12-23T11:53:33.691Z,18.20
2022-12-23T11:56:05.552Z,21.05
2022-12-23T11:58:39.828Z,14.55
2022-12-23T12:01:10.134Z,15.90
2022-12-23T12:03:47.803Z,15.90
2022-12-23T12:06:21.508Z,16.08
2022-12-23T12:08:51.419Z,19.52
2022-12-23T12:11:23.397Z,14.60
2022-12-23T12:13:54.339Z,19.15
2022-12-23T12:16:38.401Z,18.90
2022-12-23T12:19:11.435Z,15.73
2022-12-23T12:21:46.769Z,14.55
2022-12-23T12:24:19.491Z,17.88
2022-12-23T12:26:51.416Z,14.15
2022-12-23T12:29:26.184Z,23.27
2022-12-23T12:31:57.235Z,20.00
2022-12-23T12:34:41.448Z,14.70
2022-12-23T12:37:23.561Z,18.05
2022-12-23T12:39:57.932Z,14.93
2022-12-23T12:42:30.901Z,17.63
2022-12-23T12:45:07.239Z,18.35
2022-12-23T12:48:00.179Z,20.08
2022-12-23T12:50:32.362Z,17.27
2022-12-23T12:53:10.956Z,18.63
2022-12-23T12:55:44.455Z,18.77
2022-12-23T12:58:17.641Z,18.30
2022-12-23T13:00:53.683Z,15.57
2022-12-23T13:03:32.996Z,15.32
2022-12-23T13:06:08.814Z,15.82
2022-12-23T13:08:59.894Z,16.88
2022-12-23T13:11:32.399Z,16.17
2022-12-23T13:14:08.858Z,15.00
2022-12-23T13:16:44.655Z,12.52
2022-12-23T13:19:21.157Z,13.05
2022-12-23T13:21:51.838Z,14.95
2022-12-23T13:24:26.295Z,10.32
2022-12-23T13:27:02.254Z,14.80
2022-12-23T13:29:58.351Z,15.02
2022-12-23T13:32:51.737Z,10.48
2022-12-23T13:35:35.655Z,11.60
2022-12-23T13:38:13.306Z,9.82
2022-12-23T13:40:48.355Z,10.32
2022-12-23T13:43:20.000Z,12.27
2022-12-23T13:45:48.864Z,13.48
2022-12-23T13:48:29.287Z,11.98
2022-12-23T13:51:01.641Z,12.38
2022-12-23T13:53:41.574Z,9.73
2022-12-23T13:56:20.499Z,9.68
2022-12-23T13:58:50.408Z,10.75
2022-12-23T14:01:31.690Z,12.63
2022-12-23T14:04:33.697Z,8.88
2022-12-23T14:07:08.170Z,9.40
2022-12-23T14:09:39.165Z,11.32
2022-12-23T14:12:21.694Z,12.95
2022-12-23T14:15:16.371Z,10.40
2022-12-23T14:17:51.677Z,9.70
2022-12-23T14:20:32.780Z,9.43
2022-12-23T14:23:11.254Z,7.07
2022-12-23T14:26:06.923Z,8.88
2022-12-23T14:29:03.342Z,6.57
2022-12-23T14:31:41.359Z,9.05
2022-12-23T14:34:27.952Z,6.80
2022-12-23T14:37:32.711Z,8.30
2022-12-23T14:40:39.483Z,10.02
2022-12-23T14:43:26.822Z,7.40
2022-12-23T14:45:57.264Z,6.10
2022-12-23T14:52:50.783Z,6.65
2022-12-23T14:55:41.112Z,7.50
2022-12-23T14:58:35.029Z,9.63
2022-12-23T15:01:11.279Z,5.82
2022-12-23T15:03:47.683Z,5.65
2022-12-23T15:06:20.051Z,8.30
2022-12-23T15:08:50.425Z,9.40
2022-12-23T15:11:30.448Z,4.90
2022-12-23T15:14:00.864Z,4.40
2022-12-23T15:16:35.614Z,4.05
2022-12-23T15:19:17.298Z,7.43
2022-12-23T15:21:49.134Z,4.80
2022-12-23T15:27:26.588Z,3.83
2022-12-23T15:29:48.981Z,3.75
2022-12-23T15:32:19.265Z,4.63
2022-12-23T15:34:50.751Z,4.43
2022-12-23T15:37:22.931Z,4.60
2022-12-23T15:39:55.833Z,3.70
2022-12-23T15:42:37.317Z,4.15
2022-12-23T15:45:28.582Z,5.57
2022-12-23T15:47:59.544Z,3.78
2022-12-23T15:50:29.092Z,3.90
2022-12-23T15:53:02.314Z,5.82
2022-12-23T15:55:32.827Z,3.55
2022-12-23T15:58:03.210Z,3.95
2022-12-23T16:00:38.159Z,4.55
2022-12-23T16:03:18.103Z,6.75
2022-12-23T16:05:48.034Z,6.97
2022-12-23T16:08:29.243Z,6.45
2022-12-23T16:11:06.447Z,8.35
2022-12-23T16:13:35.073Z,6.93
2022-12-23T16:16:19.944Z,8.02
2022-12-23T16:18:50.151Z,8.00
2022-12-23T16:21:18.712Z,6.32
2022-12-23T16:23:50.519Z,6.55
2022-12-23T16:26:18.990Z,5.95
2022-12-23T16:28:49.647Z,14.02
2022-12-23T16:31:19.789Z,10.05
2022-12-23T16:33:52.346Z,11.02
2022-12-23T16:36:23.637Z,12.63
2022-12-23T16:38:53.691Z,10.60
2022-12-23T16:41:22.147Z,14.10
2022-12-23T16:43:52.788Z,10.07
2022-12-23T16:46:22.908Z,7.68
2022-12-23T16:48:55.602Z,8.23
2022-12-23T16:51:25.136Z,12.77
2022-12-23T16:53:55.225Z,11.25
2022-12-23T16:56:25.640Z,13.55
2022-12-23T16:58:54.006Z,9.05
2022-12-23T17:01:24.981Z,10.32
2022-12-23T17:03:56.027Z,10.07
2022-12-23T17:06:24.912Z,9.00
2022-12-23T17:08:54.339Z,9.57
2022-12-23T17:11:30.857Z,13.75
2022-12-23T17:14:04.709Z,10.55
2022-12-23T17:19:08.239Z,12.20
2022-12-23T17:21:39.131Z,10.48
2022-12-23T17:24:10.436Z,11.52
2022-12-23T17:26:42.027Z,11.43
2022-12-23T17:29:13.070Z,8.05
2022-12-23T17:31:42.536Z,10.15
2022-12-23T17:34:16.296Z,11.15
2022-12-23T17:36:49.771Z,11.20
2022-12-23T17:39:20.617Z,10.73
2022-12-23T17:41:49.583Z,10.18
2022-12-23T17:44:21.288Z,13.48
2022-12-23T17:46:49.809Z,11.07
2022-12-23T17:49:19.558Z,11.43
2022-12-23T17:51:48.031Z,13.25
2022-12-23T17:54:22.849Z,15.25
2022-12-23T17:56:51.480Z,10.40
2022-12-23T17:59:19.882Z,10.85
2022-12-23T18:01:48.387Z,10.57
2022-12-23T18:04:16.869Z,11.85
2022-12-23T18:06:46.624Z,11.88
2022-12-23T18:09:15.017Z,9.88
2022-12-23T18:11:47.278Z,13.25
2022-12-23T18:14:19.994Z,16.20
2022-12-23T18:16:48.334Z,10.25
2022-12-23T18:19:19.471Z,14.50
2022-12-23T18:21:49.956Z,10.60
2022-12-23T18:24:18.699Z,8.57
2022-12-23T18:26:47.705Z,14.57
2022-12-23T18:29:16.318Z,11.82
2022-12-23T18:31:52.167Z,8.50
2022-12-23T18:34:21.105Z,9.63
2022-12-23T18:36:52.210Z,10.25
2022-12-23T18:39:21.296Z,9.73
2022-12-23T18:41:50.055Z,10.60
2022-12-23T18:44:20.638Z,9.10
2022-12-23T18:46:50.262Z,9.43
2022-12-23T18:49:18.835Z,8.65
2022-12-23T18:51:47.291Z,11.38
2022-12-23T18:54:20.457Z,10.32
2022-12-23T18:56:49.423Z,10.07
2022-12-23T18:59:24.258Z,13.05
2022-12-23T19:01:56.263Z,18.30
2022-12-23T19:04:24.862Z,15.57
2022-12-23T19:06:53.445Z,19.73
2022-12-23T19:09:24.582Z,23.90
2022-12-23T19:11:54.262Z,22.00
2022-12-23T19:14:22.925Z,25.65
2022-12-23T19:16:53.373Z,28.75
2022-12-23T19:19:21.809Z,34.75
2022-12-23T19:21:50.169Z,38.20
2022-12-23T19:24:18.596Z,37.15
2022-12-23T19:26:48.369Z,35.75
2022-12-23T19:29:17.055Z,39.55
2022-12-23T19:31:45.501Z,36.80
2022-12-23T19:34:15.715Z,32.58
2022-12-23T19:36:44.728Z,32.63
2022-12-23T19:39:16.883Z,25.77
2022-12-23T19:41:45.944Z,26.70
2022-12-23T19:44:17.286Z,18.55
2022-12-23T19:46:45.816Z,18.58
2022-12-23T19:49:19.463Z,14.80
2022-12-23T19:51:48.427Z,14.90
2022-12-23T19:54:16.926Z,13.15
2022-12-23T19:56:45.479Z,11.23
2022-12-23T19:59:15.616Z,13.50
2022-12-23T20:01:43.982Z,12.32
2022-12-23T20:04:12.637Z,11.35
2022-12-23T20:06:42.069Z,11.05
2022-12-23T20:09:13.364Z,10.88
2022-12-23T20:11:43.206Z,10.90
2022-12-23T20:14:12.275Z,11.93
2022-12-23T20:16:42.469Z,10.30
2022-12-23T20:19:11.112Z,9.65
2022-12-23T20:21:39.467Z,9.20
2022-12-23T20:24:08.625Z,9.80
2022-12-23T20:26:38.182Z,9.15
2022-12-23T20:29:06.891Z,12.70
2022-12-23T20:31:38.315Z,8.38
2022-12-23T20:34:12.131Z,9.85
2022-12-23T20:36:40.625Z,10.80
2022-12-23T20:39:09.023Z,8.43
2022-12-23T20:41:37.482Z,11.48
2022-12-23T20:44:33.896Z,10.23
2022-12-23T20:46:57.588Z,10.15
2022-12-23T20:49:29.844Z,12.13
2022-12-23T20:51:58.270Z,9.98
2022-12-23T20:54:32.574Z,9.48
2022-12-23T20:59:33.250Z,10.85
2022-12-23T21:02:02.127Z,10.52
2022-12-23T21:04:32.022Z,9.18
2022-12-23T21:07:00.420Z,10.43
2022-12-23T21:09:28.795Z,11.13
2022-12-23T21:11:57.329Z,10.15
2022-12-23T21:14:25.723Z,8.88
2022-12-23T21:16:54.672Z,7.60
2022-12-23T21:19:24.889Z,10.10
2022-12-23T21:21:55.087Z,8.13
2022-12-23T21:24:26.917Z,11.80
2022-12-23T21:26:57.350Z,7.32
2022-12-23T21:29:27.967Z,8.70
2022-12-23T21:31:56.462Z,9.80
2022-12-23T21:34:25.171Z,10.05
2022-12-23T21:36:54.980Z,10.05
2022-12-23T21:39:23.550Z,15.05
2022-12-23T21:41:52.870Z,7.68
2022-12-23T21:44:22.020Z,8.23
2022-12-23T21:46:51.512Z,7.18
2022-12-23T21:49:20.705Z,6.20
2022-12-23T21:51:49.597Z,7.30
2022-12-23T21:54:19.585Z,8.88
2022-12-23T21:56:47.932Z,7.32
2022-12-23T21:59:16.741Z,10.30
2022-12-23T22:01:45.427Z,8.00
2022-12-23T22:04:13.958Z,6.95
2022-12-23T22:06:44.708Z,6.07
2022-12-23T22:09:15.320Z,7.28
2022-12-23T22:11:48.344Z,6.80
2022-12-23T22:14:18.790Z,8.43
2022-12-23T22:16:47.306Z,6.63
2022-12-23T22:19:15.935Z,6.20
2022-12-23T22:21:44.476Z,5.55
2022-12-23T22:24:12.889Z,6.53
2022-12-23T22:26:42.084Z,5.32
2022-12-23T22:29:12.954Z,5.68
2022-12-23T22:31:43.421Z,6.40
2022-12-23T22:34:16.177Z,6.40
2022-12-23T22:36:46.290Z,6.00
2022-12-23T22:39:20.790Z,7.85
2022-12-23T22:41:50.120Z,7.10
2022-12-23T22:44:22.312Z,5.07
2022-12-23T22:46:53.069Z,5.53
2022-12-23T22:49:21.591Z,6.22
2022-12-23T22:51:50.045Z,5.13
2022-12-23T22:54:18.449Z,6.72
2022-12-23T22:56:47.032Z,4.72
2022-12-23T22:59:24.791Z,6.50
2022-12-23T23:01:53.964Z,5.18
2022-12-23T23:04:22.452Z,4.90
2022-12-23T23:06:53.581Z,5.03
2022-12-23T23:09:25.287Z,5.70
2022-12-23T23:11:53.961Z,6.78
2022-12-23T23:14:24.103Z,6.13
2022-12-23T23:16:52.502Z,4.78
2022-12-23T23:19:21.415Z,6.50
2022-12-23T23:21:50.028Z,7.57
2022-12-23T23:24:18.404Z,5.60
2022-12-23T23:26:50.934Z,6.03
2022-12-23T23:29:19.489Z,6.65
2022-12-23T23:31:49.295Z,6.70
2022-12-23T23:34:17.863Z,6.63
2022-12-23T23:36:46.370Z,6.20
2022-12-23T23:39:15.205Z,5.45
2022-12-23T23:41:44.932Z,7.70
2022-12-23T23:44:13.531Z,6.40
2022-12-23T23:46:42.047Z,6.13
2022-12-23T23:49:12.263Z,6.00
2022-12-23T23:51:43.880Z,8.77
2022-12-23T23:54:12.331Z,7.68
2022-12-23T23:56:40.669Z,7.45
2022-12-23T23:59:09.622Z,9.27
